Time;durP1;ratioP1;P1;durP2;ratioP2;P2;SDS_P1;SDS_P2;PMS_P1;PMS_P2;Temp;Humidity;BMP_temperature;BMP_pressure;BME280_temperature;BME280_humidity;BME280_pressure;Samples;Min_cycle;Max_cycle;Signal;HPM_P1;HPM_P2
2021/07/04 00:02:22;;;;;;;5.07;4.60;;;21.30;69.10;;;;;;5054598;28;20669;-63
2021/07/04 00:04:48;;;;;;;5.30;4.78;;;21.30;69.00;;;;;;5054910;28;20550;-63
2021/07/04 00:07:13;;;;;;;4.95;4.55;;;21.30;68.90;;;;;;5055132;28;20175;-63
2021/07/04 00:09:39;;;;;;;5.35;4.88;;;21.30;68.90;;;;;;5054055;28;20183;-63
2021/07/04 00:12:05;;;;;;;5.00;4.60;;;21.30;68.80;;;;;;5054919;28;20163;-62
2021/07/04 00:14:31;;;;;;;4.72;4.32;;;21.30;68.90;;;;;;5054672;28;20190;-62
2021/07/04 00:16:56;;;;;;;4.13;3.83;;;21.30;68.90;;;;;;5054371;28;20167;-63
2021/07/04 00:19:22;;;;;;;5.00;4.60;;;21.30;68.90;;;;;;5054642;28;20250;-63
2021/07/04 00:21:48;;;;;;;4.90;4.50;;;21.30;69.10;;;;;;5053775;28;20656;-64
2021/07/04 00:24:13;;;;;;;4.70;4.30;;;21.30;69.00;;;;;;5054901;28;20175;-63
2021/07/04 00:26:39;;;;;;;4.68;4.28;;;21.30;69.00;;;;;;5054566;28;20178;-63
2021/07/04 00:29:04;;;;;;;4.72;4.32;;;21.30;68.90;;;;;;5053945;28;20953;-63
2021/07/04 00:31:30;;;;;;;5.10;4.70;;;21.30;68.80;;;;;;5054249;28;20633;-63
2021/07/04 00:33:58;;;;;;;4.70;4.30;;;21.30;69.00;;;;;;5054622;28;20234;-62
2021/07/04 00:36:23;;;;;;;5.40;4.90;;;21.30;69.00;;;;;;5053977;28;20172;-63
2021/07/04 00:38:49;;;;;;;4.97;4.57;;;21.30;69.00;;;;;;5054057;28;20214;-64
2021/07/04 00:41:14;;;;;;;4.45;4.05;;;21.30;68.80;;;;;;5054632;28;20581;-63
2021/07/04 00:43:42;;;;;;;5.15;4.65;;;21.30;68.80;;;;;;5053352;28;20183;-63
2021/07/04 00:46:08;;;;;;;4.88;4.47;;;21.30;68.90;;;;;;5054261;28;20167;-62
2021/07/04 00:48:33;;;;;;;4.93;4.53;;;21.30;69.00;;;;;;5054140;28;20178;-62
2021/07/04 00:50:59;;;;;;;4.90;4.45;;;21.30;68.80;;;;;;5053563;28;20180;-62
2021/07/04 00:53:24;;;;;;;4.38;4.07;;;21.20;68.80;;;;;;5052999;28;20182;-62
2021/07/04 00:55:50;;;;;;;5.00;4.60;;;21.20;68.90;;;;;;5054064;28;20185;-63
2021/07/04 00:58:16;;;;;;;4.47;4.18;;;21.20;68.60;;;;;;5053525;28;20297;-62
2021/07/04 01:00:44;;;;;;;4.45;4.07;;;21.20;68.80;;;;;;5053939;28;20177;-63
2021/07/04 01:03:09;;;;;;;4.45;4.05;;;21.20;68.80;;;;;;5054127;28;20174;-63
2021/07/04 01:05:35;;;;;;;4.38;4.00;;;21.20;68.70;;;;;;5052911;28;20584;-63
2021/07/04 01:08:02;;;;;;;4.32;4.03;;;21.20;68.80;;;;;;5053788;28;20586;-63
2021/07/04 01:10:28;;;;;;;4.70;4.30;;;21.20;68.80;;;;;;5054093;28;20189;-63
2021/07/04 01:12:54;;;;;;;4.75;4.40;;;21.20;68.60;;;;;;5052984;28;20181;-63
2021/07/04 01:15:21;;;;;;;4.70;4.30;;;21.20;68.80;;;;;;5053875;28;20190;-62
2021/07/04 01:17:49;;;;;;;4.63;4.22;;;21.20;68.60;;;;;;5053244;28;20241;-63
2021/07/04 01:20:17;;;;;;;4.30;4.00;;;21.20;68.70;;;;;;5053001;28;20520;-63
2021/07/04 01:22:54;;;;;;;4.60;4.20;;;21.20;68.80;;;;;;5052570;28;20229;-63
2021/07/04 01:25:20;;;;;;;4.80;4.40;;;21.20;68.60;;;;;;5052042;28;20174;-64
2021/07/04 01:27:45;;;;;;;4.35;4.05;;;21.20;68.50;;;;;;5052137;28;20530;-63
2021/07/04 01:30:11;;;;;;;4.47;4.10;;;21.20;68.50;;;;;;5053697;28;20187;-63
2021/07/04 01:32:37;;;;;;;4.35;4.05;;;21.20;68.70;;;;;;5052460;28;20179;-63
2021/07/04 01:35:03;;;;;;;4.82;4.38;;;21.20;68.70;;;;;;5053479;28;20174;-62
2021/07/04 01:37:28;;;;;;;4.10;3.70;;;21.20;68.60;;;;;;5053566;28;20215;-63
2021/07/04 01:39:54;;;;;;;4.18;3.88;;;21.20;68.60;;;;;;5052571;28;20538;-63
2021/07/04 01:42:19;;;;;;;4.20;3.90;;;21.20;68.50;;;;;;5053407;28;20167;-63
2021/07/04 01:44:45;;;;;;;4.43;4.03;;;21.20;68.60;;;;;;5052932;28;20206;-63
2021/07/04 01:47:10;;;;;;;4.07;3.78;;;21.20;68.60;;;;;;5052588;28;20250;-63
2021/07/04 01:49:36;;;;;;;4.13;3.83;;;21.20;68.70;;;;;;5052737;28;20328;-63
2021/07/04 01:52:01;;;;;;;4.45;4.05;;;21.20;68.80;;;;;;5053777;28;20179;-63
2021/07/04 01:54:27;;;;;;;4.22;3.92;;;21.20;68.50;;;;;;5052540;28;20677;-63
2021/07/04 01:56:52;;;;;;;4.35;4.05;;;21.20;68.60;;;;;;5052831;28;20586;-63
2021/07/04 01:59:18;;;;;;;4.15;3.85;;;21.20;68.60;;;;;;5052910;28;20211;-63
2021/07/04 02:01:43;;;;;;;4.53;4.13;;;21.20;68.40;;;;;;5052090;28;20217;-63
2021/07/04 02:04:09;;;;;;;4.35;3.95;;;21.20;68.60;;;;;;5052900;28;20224;-63
2021/07/04 02:06:34;;;;;;;4.50;4.10;;;21.20;68.60;;;;;;5052911;28;20228;-63
2021/07/04 02:09:00;;;;;;;3.95;3.65;;;21.20;68.60;;;;;;5052308;28;20175;-63
2021/07/04 02:11:25;;;;;;;4.63;4.22;;;21.20;68.50;;;;;;5052984;28;20167;-63
2021/07/04 02:13:51;;;;;;;4.35;3.97;;;21.20;68.50;;;;;;5052594;28;20205;-63
2021/07/04 02:16:16;;;;;;;4.50;4.07;;;21.20;68.50;;;;;;5052194;28;20538;-62
2021/07/04 02:18:42;;;;;;;4.57;4.18;;;21.20;68.40;;;;;;5052162;28;20235;-63
2021/07/04 02:21:08;;;;;;;4.22;3.85;;;21.20;68.40;;;;;;5052770;28;20179;-63
2021/07/04 02:23:34;;;;;;;3.90;3.60;;;21.20;68.60;;;;;;5051878;28;20587;-63
2021/07/04 02:25:59;;;;;;;4.03;3.70;;;21.20;68.60;;;;;;5052807;28;20167;-63
2021/07/04 02:28:26;;;;;;;3.50;3.28;;;21.20;68.50;;;;;;5052207;28;20232;-63
2021/07/04 02:30:53;;;;;;;4.25;3.95;;;21.20;68.50;;;;;;5052433;28;20175;-62
2021/07/04 02:33:19;;;;;;;4.18;3.65;;;21.20;68.70;;;;;;5052575;28;20185;-62
2021/07/04 02:35:50;;;;;;;4.50;4.20;;;21.20;68.70;;;;;;5056026;28;20175;-64
2021/07/04 02:38:15;;;;;;;3.95;3.58;;;21.20;68.60;;;;;;5056861;28;20245;-63
2021/07/04 02:40:42;;;;;;;3.80;3.50;;;21.20;68.60;;;;;;5056560;28;20634;-63
2021/07/04 02:43:08;;;;;;;3.75;3.45;;;21.20;68.60;;;;;;5055936;28;20186;-63
2021/07/04 02:45:34;;;;;;;3.85;3.55;;;21.20;68.70;;;;;;5056409;28;20175;-63
2021/07/04 02:48:00;;;;;;;3.97;3.65;;;21.20;68.70;;;;;;5056436;28;20190;-63
2021/07/04 02:50:25;;;;;;;3.85;3.55;;;21.20;68.60;;;;;;5055800;28;20680;-63
2021/07/04 02:52:52;;;;;;;3.78;3.47;;;21.10;68.50;;;;;;5056327;28;20257;-63
2021/07/04 02:55:18;;;;;;;3.53;3.33;;;21.20;68.70;;;;;;5056808;28;20179;-64
2021/07/04 02:57:44;;;;;;;3.92;3.63;;;21.10;68.50;;;;;;5055382;28;20298;-62
2021/07/04 03:00:11;;;;;;;3.95;3.65;;;21.20;68.60;;;;;;5056404;28;20258;-63
2021/07/04 03:02:36;;;;;;;3.85;3.55;;;21.10;68.70;;;;;;5055894;28;20183;-63
2021/07/04 03:05:03;;;;;;;4.20;3.90;;;21.10;68.50;;;;;;5055765;28;20171;-63
2021/07/04 03:07:29;;;;;;;4.30;3.90;;;21.10;68.40;;;;;;5056324;28;20175;-63
2021/07/04 03:09:54;;;;;;;4.10;3.80;;;21.10;68.40;;;;;;5056217;28;20174;-62
2021/07/04 03:12:20;;;;;;;3.38;3.10;;;21.10;68.50;;;;;;5055587;28;20183;-63
2021/07/04 03:14:45;;;;;;;3.88;3.58;;;21.10;68.50;;;;;;5055768;28;20217;-63
2021/07/04 03:17:11;;;;;;;3.60;3.35;;;21.10;68.50;;;;;;5055983;28;20194;-63
2021/07/04 03:19:36;;;;;;;3.97;3.67;;;21.10;68.50;;;;;;5053498;28;20708;-63
2021/07/04 03:22:02;;;;;;;4.20;3.90;;;21.10;68.60;;;;;;5056061;28;20175;-63
2021/07/04 03:24:27;;;;;;;3.90;3.60;;;21.10;68.60;;;;;;5055979;28;20176;-63
2021/07/04 03:26:56;;;;;;;3.72;3.42;;;21.10;68.50;;;;;;5054922;28;20628;-63
2021/07/04 03:29:21;;;;;;;3.60;3.30;;;21.10;69.30;;;;;;5055819;28;20175;-62
2021/07/04 03:31:47;;;;;;;3.67;3.47;;;21.10;68.50;;;;;;5054737;28;20182;-63
2021/07/04 03:34:12;;;;;;;4.50;4.10;;;21.10;68.50;;;;;;5055944;28;20581;-62
2021/07/04 03:36:38;;;;;;;4.00;3.70;;;21.10;68.60;;;;;;5055333;28;20171;-62
2021/07/04 03:39:04;;;;;;;3.55;3.25;;;21.10;68.60;;;;;;5055052;28;20681;-63
2021/07/04 03:41:30;;;;;;;3.45;3.25;;;21.10;69.30;;;;;;5055349;28;20253;-63
2021/07/04 03:43:59;;;;;;;3.65;3.40;;;21.10;68.60;;;;;;5055562;28;20189;-63
2021/07/04 03:46:24;;;;;;;3.58;3.28;;;21.10;68.60;;;;;;5054047;28;20195;-63
2021/07/04 03:48:50;;;;;;;3.85;3.55;;;21.10;68.50;;;;;;5055260;28;20244;-63
2021/07/04 03:51:15;;;;;;;3.58;3.28;;;21.10;68.60;;;;;;5055629;28;20179;-62
2021/07/04 03:53:41;;;;;;;3.88;3.58;;;21.10;68.60;;;;;;5054286;28;20179;-63
2021/07/04 03:56:06;;;;;;;3.50;3.30;;;21.10;68.60;;;;;;5055407;28;20178;-62
2021/07/04 03:58:32;;;;;;;3.78;3.47;;;21.10;68.60;;;;;;5054971;28;20218;-63
2021/07/04 04:00:57;;;;;;;3.63;3.33;;;21.10;68.60;;;;;;5054710;28;20168;-63
2021/07/04 04:03:23;;;;;;;3.65;3.35;;;21.10;68.60;;;;;;5055138;28;20573;-63
2021/07/04 04:05:48;;;;;;;4.35;3.42;;;21.10;68.50;;;;;;5054796;28;20630;-63
2021/07/04 04:08:14;;;;;;;3.35;3.05;;;21.10;69.30;;;;;;5054499;28;20353;-63
2021/07/04 04:10:40;;;;;;;3.50;3.22;;;21.10;68.50;;;;;;5054860;28;20171;-63
2021/07/04 04:13:05;;;;;;;4.43;3.38;;;21.10;68.60;;;;;;5055130;28;20668;-63
2021/07/04 04:15:31;;;;;;;3.55;3.30;;;21.10;68.60;;;;;;5053898;28;20229;-62
2021/07/04 04:17:58;;;;;;;3.78;3.25;;;21.10;68.50;;;;;;5054531;28;20595;-63
2021/07/04 04:20:24;;;;;;;3.42;3.15;;;21.10;68.60;;;;;;5055049;28;20183;-63
2021/07/04 04:22:49;;;;;;;3.67;3.38;;;21.10;68.70;;;;;;5053715;28;20182;-63
2021/07/04 04:25:15;;;;;;;3.58;3.30;;;21.10;68.50;;;;;;5054945;28;20187;-63
2021/07/04 04:27:40;;;;;;;3.35;3.15;;;21.10;68.70;;;;;;5054374;28;20220;-63
2021/07/04 04:30:07;;;;;;;3.45;3.25;;;21.10;68.80;;;;;;5053981;28;20163;-62
2021/07/04 04:32:32;;;;;;;3.95;3.55;;;21.10;68.60;;;;;;5054368;28;20266;-62
2021/07/04 04:34:58;;;;;;;3.80;3.50;;;21.10;68.60;;;;;;5053942;28;20268;-63
2021/07/04 04:37:23;;;;;;;3.22;2.92;;;21.10;68.50;;;;;;5054497;28;20786;-63
2021/07/04 04:39:49;;;;;;;3.15;2.95;;;21.10;68.50;;;;;;5054308;28;20188;-63
2021/07/04 04:42:14;;;;;;;3.65;3.22;;;21.10;68.50;;;;;;5053776;28;20175;-63
2021/07/04 04:44:40;;;;;;;3.50;3.20;;;21.10;68.50;;;;;;5053989;28;20231;-64
2021/07/04 04:47:08;;;;;;;3.45;3.22;;;21.10;68.50;;;;;;5054454;28;20221;-63
2021/07/04 04:49:34;;;;;;;3.25;3.05;;;21.10;68.50;;;;;;5053090;28;20171;-63
2021/07/04 04:52:00;;;;;;;3.40;3.20;;;21.10;68.30;;;;;;5054405;28;20175;-62
2021/07/04 04:54:25;;;;;;;3.88;3.47;;;21.10;68.50;;;;;;5054188;28;20175;-63
2021/07/04 04:56:51;;;;;;;3.70;3.40;;;21.10;68.30;;;;;;5052773;28;20175;-63
2021/07/04 04:59:16;;;;;;;3.83;3.53;;;21.10;68.50;;;;;;5053379;28;20566;-63
2021/07/04 05:01:42;;;;;;;3.45;3.20;;;21.10;68.60;;;;;;5053659;28;20198;-63
2021/07/04 05:04:09;;;;;;;3.15;2.88;;;21.10;68.50;;;;;;5053426;28;20536;-63
2021/07/04 05:06:34;;;;;;;3.28;3.08;;;21.10;68.50;;;;;;5053720;28;20229;-63
2021/07/04 05:09:00;;;;;;;3.50;3.20;;;21.10;68.50;;;;;;5053972;28;20203;-64
2021/07/04 05:11:26;;;;;;;3.67;3.35;;;21.10;68.40;;;;;;5053156;28;20194;-63
2021/07/04 05:13:51;;;;;;;3.67;3.38;;;21.10;68.40;;;;;;5053403;28;20533;-63
2021/07/04 05:16:17;;;;;;;3.50;3.30;;;21.10;68.40;;;;;;5053923;28;20171;-62
2021/07/04 05:18:43;;;;;;;3.42;3.22;;;21.10;68.30;;;;;;5052632;28;20655;-63
2021/07/04 05:21:08;;;;;;;3.35;3.15;;;21.10;68.40;;;;;;5053482;28;20267;-63
2021/07/04 05:23:34;;;;;;;3.80;3.50;;;21.20;68.40;;;;;;5053329;28;20269;-63
2021/07/04 05:25:59;;;;;;;3.33;3.13;;;21.10;68.30;;;;;;5052923;28;20181;-63
2021/07/04 05:28:25;;;;;;;3.55;3.30;;;21.20;68.40;;;;;;5053372;28;20207;-63
2021/07/04 05:30:50;;;;;;;3.40;3.10;;;21.20;68.40;;;;;;5053378;28;20564;-63
2021/07/04 05:33:16;;;;;;;3.30;3.10;;;21.20;68.40;;;;;;5052786;28;20190;-62
2021/07/04 05:35:42;;;;;;;3.75;3.45;;;21.20;68.40;;;;;;5053128;28;20620;-63
2021/07/04 05:38:17;;;;;;;3.75;3.28;;;21.20;68.40;;;;;;5053342;28;20207;-63
2021/07/04 05:40:42;;;;;;;3.53;3.22;;;21.20;68.40;;;;;;5052996;28;20174;-63
2021/07/04 05:43:08;;;;;;;3.33;3.10;;;21.10;68.40;;;;;;5053250;28;20174;-63
2021/07/04 05:45:33;;;;;;;3.38;3.17;;;21.20;68.50;;;;;;5052474;28;20167;-63
2021/07/04 05:47:59;;;;;;;3.55;3.30;;;21.20;68.40;;;;;;5053335;28;20178;-63
2021/07/04 05:50:24;;;;;;;3.22;3.03;;;21.30;68.30;;;;;;5053312;28;20246;-63
2021/07/04 05:52:50;;;;;;;3.75;3.45;;;21.30;68.10;;;;;;5052333;28;20541;-62
2021/07/04 05:55:15;;;;;;;3.83;3.53;;;21.30;68.20;;;;;;5053075;28;20310;-63
2021/07/04 05:57:41;;;;;;;3.22;3.03;;;21.40;69.10;;;;;;5052768;28;20251;-63
2021/07/04 06:00:07;;;;;;;3.40;3.20;;;21.30;68.30;;;;;;5052514;28;20237;-63
2021/07/04 06:02:33;;;;;;;3.95;3.65;;;21.30;68.50;;;;;;5052840;28;20229;-63
2021/07/04 06:05:01;;;;;;;3.28;3.03;;;21.30;68.50;;;;;;5052969;28;20571;-63
2021/07/04 06:07:27;;;;;;;3.22;3.03;;;21.30;68.60;;;;;;5052298;28;20178;-63
2021/07/04 06:09:52;;;;;;;3.58;3.30;;;21.30;68.50;;;;;;5052457;28;20179;-64
2021/07/04 06:12:18;;;;;;;3.42;3.13;;;21.30;68.60;;;;;;5052973;28;20266;-63
2021/07/04 06:14:43;;;;;;;3.50;3.20;;;21.30;68.40;;;;;;5052106;28;20207;-63
2021/07/04 06:17:10;;;;;;;3.42;3.13;;;21.30;68.40;;;;;;5052942;28;20270;-63
2021/07/04 06:19:37;;;;;;;3.42;3.13;;;21.30;68.30;;;;;;5052105;28;20242;-63
2021/07/04 06:22:03;;;;;;;3.35;3.03;;;21.30;68.20;;;;;;5052145;28;20175;-63
2021/07/04 06:24:29;;;;;;;3.60;3.30;;;21.40;68.20;;;;;;5052790;28;20186;-63
2021/07/04 06:26:54;;;;;;;3.50;3.20;;;21.40;68.10;;;;;;5052398;28;20183;-63
2021/07/04 06:29:20;;;;;;;3.28;3.08;;;21.40;68.00;;;;;;5052140;28;20173;-62
2021/07/04 06:31:45;;;;;;;3.10;2.90;;;21.50;67.90;;;;;;5052603;28;20544;-62
2021/07/04 06:34:11;;;;;;;3.60;3.30;;;21.50;67.80;;;;;;5052661;28;20175;-62
2021/07/04 06:36:37;;;;;;;3.30;3.10;;;21.50;67.90;;;;;;5051675;28;20546;-63
2021/07/04 06:39:02;;;;;;;3.55;3.25;;;21.40;67.90;;;;;;5052465;28;20558;-63
2021/07/04 06:41:28;;;;;;;4.00;3.20;;;21.50;67.90;;;;;;5052446;28;20687;-63
2021/07/04 06:43:54;;;;;;;3.60;3.30;;;21.50;67.90;;;;;;5051963;28;20528;-63
2021/07/04 06:46:19;;;;;;;3.70;3.40;;;21.50;67.90;;;;;;5052664;28;20171;-63
2021/07/04 06:48:45;;;;;;;3.42;3.13;;;21.50;67.80;;;;;;5051575;28;20546;-63
2021/07/04 06:51:11;;;;;;;3.35;3.05;;;21.50;67.70;;;;;;5052495;28;20233;-63
2021/07/04 06:53:36;;;;;;;3.10;2.90;;;21.50;67.70;;;;;;5052137;28;20175;-62
2021/07/04 06:56:02;;;;;;;3.20;3.00;;;21.50;67.80;;;;;;5051639;28;20186;-62
2021/07/04 06:58:28;;;;;;;3.30;3.00;;;21.50;67.90;;;;;;5052577;28;20240;-62
2021/07/04 07:00:56;;;;;;;3.60;3.35;;;21.50;67.90;;;;;;5052143;28;20167;-63
2021/07/04 07:03:21;;;;;;;3.33;3.13;;;21.50;67.70;;;;;;5051708;28;20175;-63
2021/07/04 07:05:47;;;;;;;3.58;3.38;;;21.60;67.70;;;;;;5052087;28;20178;-62
2021/07/04 07:08:12;;;;;;;3.33;3.13;;;21.60;67.50;;;;;;5052399;28;20182;-62
2021/07/04 07:10:38;;;;;;;3.15;2.95;;;21.60;67.40;;;;;;5051212;28;20168;-62
2021/07/04 07:13:04;;;;;;;3.20;3.00;;;21.60;67.40;;;;;;5052364;28;20179;-62
2021/07/04 07:15:29;;;;;;;3.50;3.20;;;21.60;67.60;;;;;;5052069;28;20254;-62
2021/07/04 07:17:55;;;;;;;3.75;3.45;;;21.60;67.70;;;;;;5051338;28;20693;-62
2021/07/04 07:20:20;;;;;;;3.50;3.30;;;21.50;67.60;;;;;;5052295;28;20692;-63
2021/07/04 07:22:46;;;;;;;3.50;3.20;;;21.60;67.70;;;;;;5055589;28;20633;-63
2021/07/04 07:25:15;;;;;;;3.28;3.08;;;21.60;67.60;;;;;;5055203;28;20175;-63
2021/07/04 07:27:40;;;;;;;3.70;3.40;;;21.60;67.60;;;;;;5055665;28;20198;-63
2021/07/04 07:30:07;;;;;;;3.45;3.20;;;21.60;67.60;;;;;;5055880;28;20244;-62
2021/07/04 07:32:33;;;;;;;3.80;3.50;;;21.60;67.70;;;;;;5054704;28;20186;-62
2021/07/04 07:34:58;;;;;;;3.60;3.30;;;21.60;67.70;;;;;;5055784;28;20179;-62
2021/07/04 07:37:24;;;;;;;3.72;3.45;;;21.60;67.70;;;;;;5055653;28;20406;-63
2021/07/04 07:39:50;;;;;;;3.97;3.67;;;21.60;67.70;;;;;;5054967;28;20546;-62
2021/07/04 07:42:16;;;;;;;3.78;3.47;;;21.70;67.80;;;;;;5055637;28;20241;-63
2021/07/04 07:44:42;;;;;;;4.07;3.78;;;21.70;67.70;;;;;;5055290;28;20183;-70
2021/07/04 07:47:08;;;;;;;3.58;3.28;;;21.70;67.70;;;;;;5054838;28;20175;-70
2021/07/04 07:49:33;;;;;;;3.85;3.55;;;21.70;67.70;;;;;;5055241;28;20206;-63
2021/07/04 07:51:59;;;;;;;3.90;3.60;;;21.70;67.90;;;;;;5054624;28;20207;-64
2021/07/04 07:54:25;;;;;;;4.93;4.18;;;21.70;67.80;;;;;;5055342;28;20167;-63
2021/07/04 07:56:50;;;;;;;3.78;3.47;;;21.70;67.80;;;;;;5054963;28;20561;-63
2021/07/04 07:59:16;;;;;;;3.63;3.42;;;21.70;67.90;;;;;;5054576;28;20211;-63
2021/07/04 08:01:41;;;;;;;3.58;3.28;;;21.60;67.80;;;;;;5055074;28;20175;-63
2021/07/04 08:04:07;;;;;;;4.20;3.80;;;21.60;67.90;;;;;;5055194;28;20221;-63
2021/07/04 08:06:32;;;;;;;4.57;4.18;;;21.70;67.90;;;;;;5054024;28;20168;-64
2021/07/04 08:08:58;;;;;;;4.43;4.13;;;21.70;67.90;;;;;;5055032;28;20905;-64
2021/07/04 08:11:24;;;;;;;4.70;4.30;;;21.70;67.80;;;;;;5054904;28;20597;-63
2021/07/04 08:13:50;;;;;;;4.15;3.85;;;21.70;67.80;;;;;;5054225;28;20183;-63
2021/07/04 08:16:16;;;;;;;4.15;3.78;;;21.70;67.90;;;;;;5055066;28;20225;-64
2021/07/04 08:18:42;;;;;;;4.20;3.90;;;21.60;67.90;;;;;;5054412;28;20231;-64
2021/07/04 08:21:08;;;;;;;4.50;4.10;;;21.70;67.90;;;;;;5054180;28;20171;-64
2021/07/04 08:23:33;;;;;;;4.57;4.18;;;21.70;67.90;;;;;;5054476;28;20178;-64
2021/07/04 08:25:59;;;;;;;5.13;4.63;;;21.70;67.90;;;;;;5054881;28;20171;-64
2021/07/04 08:28:24;;;;;;;7.13;6.43;;;21.60;68.00;;;;;;5054048;28;20175;-64
2021/07/04 08:30:50;;;;;;;9.23;8.32;;;21.60;68.30;;;;;;5054285;28;20625;-64
2021/07/04 08:33:15;;;;;;;9.70;8.60;;;21.70;68.80;;;;;;5054355;28;20184;-64
2021/07/04 08:35:41;;;;;;;12.43;11.23;;;21.60;68.90;;;;;;5053639;28;20179;-64
2021/07/04 08:38:06;;;;;;;11.35;10.25;;;21.60;69.60;;;;;;5054390;28;20199;-64
2021/07/04 08:40:32;;;;;;;12.23;10.95;;;21.60;69.50;;;;;;5054360;28;20195;-63
2021/07/04 08:42:58;;;;;;;9.38;8.48;;;21.60;69.50;;;;;;5053951;28;20272;-63
2021/07/04 08:45:24;;;;;;;10.43;9.43;;;21.70;69.10;;;;;;5054382;28;20186;-66
2021/07/04 08:47:49;;;;;;;10.10;8.63;;;21.70;69.20;;;;;;5054039;28;20179;-63
2021/07/04 08:50:15;;;;;;;10.95;9.95;;;21.70;69.10;;;;;;5053525;28;20195;-62
2021/07/04 08:52:41;;;;;;;10.73;9.68;;;21.80;69.20;;;;;;5053922;28;20545;-62
2021/07/04 08:55:07;;;;;;;10.05;9.00;;;21.80;69.20;;;;;;5054124;28;20540;-62
2021/07/04 08:57:33;;;;;;;9.35;8.45;;;21.90;69.10;;;;;;5053664;28;20228;-62
2021/07/04 08:59:58;;;;;;;10.85;9.80;;;21.90;68.90;;;;;;5054278;28;20179;-63
2021/07/04 09:02:34;;;;;;;11.02;9.93;;;21.90;68.90;;;;;;5053495;28;20182;-63
2021/07/04 09:05:07;;;;;;;10.23;9.23;;;21.90;68.80;;;;;;5054023;28;20701;-64
2021/07/04 09:07:33;;;;;;;10.07;9.18;;;22.00;68.70;;;;;;5053838;28;20278;-64
2021/07/04 09:10:00;;;;;;;10.40;9.40;;;22.00;68.50;;;;;;5053347;28;20649;-64
2021/07/04 09:12:38;;;;;;;10.48;9.38;;;22.10;68.50;;;;;;5053938;28;20182;-63
2021/07/04 09:15:15;;;;;;;10.23;9.15;;;22.10;68.50;;;;;;5053903;28;20179;-62
2021/07/04 09:17:44;;;;;;;10.48;9.48;;;22.10;68.40;;;;;;5052742;28;20229;-62
2021/07/04 09:20:13;;;;;;;9.60;8.68;;;22.20;68.40;;;;;;5053635;28;20206;-64
2021/07/04 09:22:40;;;;;;;10.10;9.15;;;22.20;68.10;;;;;;5053452;28;20175;-64
2021/07/04 09:25:10;;;;;;;10.40;9.43;;;22.20;68.10;;;;;;5052837;28;20240;-64
2021/07/04 09:27:35;;;;;;;10.05;9.05;;;22.20;68.10;;;;;;5053190;28;20179;-64
2021/07/04 09:30:01;;;;;;;9.95;8.60;;;22.30;68.90;;;;;;5053482;28;20185;-63
2021/07/04 09:32:28;;;;;;;9.80;8.90;;;22.30;67.90;;;;;;5053101;28;20178;-64
2021/07/04 09:35:10;;;;;;;10.80;9.70;;;22.30;67.90;;;;;;5053236;28;20687;-62
2021/07/04 09:37:38;;;;;;;8.73;7.80;;;22.30;67.80;;;;;;5052314;28;20691;-63
2021/07/04 09:40:25;;;;;;;9.45;8.55;;;22.30;67.80;;;;;;5053657;28;20214;-64
2021/07/04 09:43:00;;;;;;;9.98;8.93;;;22.40;67.90;;;;;;5053242;28;20175;-65
2021/07/04 09:45:28;;;;;;;9.85;8.85;;;22.40;67.80;;;;;;5052393;28;20205;-64
2021/07/04 09:47:57;;;;;;;10.40;9.30;;;22.40;68.00;;;;;;5051593;28;20714;-64
2021/07/04 09:50:23;;;;;;;10.02;9.10;;;22.40;67.90;;;;;;5053337;28;20186;-64
2021/07/04 09:53:02;;;;;;;9.45;8.55;;;22.40;67.80;;;;;;5052116;28;20175;-64
2021/07/04 09:55:28;;;;;;;9.35;8.50;;;22.40;67.90;;;;;;5053294;28;20171;-63
2021/07/04 09:57:55;;;;;;;8.77;7.97;;;22.40;67.90;;;;;;5052618;28;20714;-63
2021/07/04 10:00:21;;;;;;;9.98;8.98;;;22.30;68.00;;;;;;5052448;28;20187;-64
2021/07/04 10:03:11;;;;;;;10.13;9.20;;;22.30;68.10;;;;;;5052757;28;20542;-64
2021/07/04 10:05:38;;;;;;;10.07;9.07;;;22.20;68.20;;;;;;5052004;28;20183;-63
2021/07/04 10:08:20;;;;;;;9.98;9.05;;;22.20;68.30;;;;;;5053193;28;20185;-63
2021/07/04 10:10:46;;;;;;;9.65;8.70;;;22.20;68.30;;;;;;5052568;28;20588;-63
2021/07/04 10:13:11;;;;;;;9.65;8.77;;;22.30;68.30;;;;;;5052254;28;20175;-63
2021/07/04 10:15:38;;;;;;;9.23;8.43;;;22.20;68.30;;;;;;5052438;28;20850;-63
2021/07/04 10:18:04;;;;;;;9.32;8.35;;;22.20;68.20;;;;;;5051382;28;20231;-63
2021/07/04 10:20:29;;;;;;;8.98;8.18;;;22.30;68.00;;;;;;5051793;28;20187;-64
2021/07/04 10:22:55;;;;;;;9.57;8.68;;;22.40;68.00;;;;;;5052880;28;20178;-64
2021/07/04 10:25:20;;;;;;;9.63;8.80;;;22.40;68.00;;;;;;5051678;28;20175;-63
2021/07/04 10:27:47;;;;;;;9.82;8.93;;;22.40;68.10;;;;;;5051725;28;20225;-65
2021/07/04 10:30:13;;;;;;;10.30;9.40;;;22.30;68.20;;;;;;5051475;28;20178;-65
2021/07/04 10:32:44;;;;;;;9.77;8.88;;;22.40;68.20;;;;;;5051273;28;20171;-71
2021/07/04 10:35:10;;;;;;;9.55;8.50;;;22.50;68.20;;;;;;5050956;28;20186;-68
2021/07/04 10:37:38;;;;;;;10.55;9.55;;;22.50;68.10;;;;;;5052460;28;20181;-67
2021/07/04 10:40:07;;;;;;;10.95;9.85;;;22.40;68.20;;;;;;5052734;28;20225;-67
2021/07/04 10:42:37;;;;;;;10.55;9.45;;;22.40;68.60;;;;;;5052178;28;20179;-69
2021/07/04 10:45:28;;;;;;;9.82;8.93;;;22.40;69.00;;;;;;5052803;28;20179;-69
2021/07/04 10:48:15;;;;;;;10.60;9.27;;;22.40;69.00;;;;;;5052437;28;20176;-68
2021/07/04 10:51:07;;;;;;;9.82;8.85;;;22.40;69.10;;;;;;5052963;28;20179;-68
2021/07/04 10:53:46;;;;;;;10.27;9.38;;;22.40;69.00;;;;;;5052446;28;20175;-68
2021/07/04 10:56:41;;;;;;;10.07;9.18;;;22.40;68.90;;;;;;5054965;28;20182;-67
2021/07/04 10:59:06;;;;;;;11.00;9.68;;;22.50;68.80;;;;;;5050966;28;20614;-68
2021/07/04 11:01:52;;;;;;;9.23;8.43;;;22.40;68.70;;;;;;5056048;28;20163;-68
2021/07/04 11:04:32;;;;;;;10.43;9.52;;;22.50;68.60;;;;;;5056540;28;20258;-71
2021/07/04 11:07:04;;;;;;;10.35;9.45;;;22.50;68.40;;;;;;5056381;28;20179;-71
2021/07/04 11:09:52;;;;;;;10.77;8.75;;;22.60;68.30;;;;;;5055324;28;20250;-70
2021/07/04 11:12:25;;;;;;;8.90;8.00;;;22.60;68.10;;;;;;5056120;28;20250;-66
2021/07/04 11:15:13;;;;;;;11.35;8.73;;;22.60;68.10;;;;;;5056009;28;20179;-66
2021/07/04 11:17:57;;;;;;;9.45;8.38;;;22.60;68.10;;;;;;5055020;28;20258;-66
2021/07/04 11:20:44;;;;;;;8.43;7.63;;;22.60;68.10;;;;;;5056602;28;20661;-67
2021/07/04 11:23:25;;;;;;;9.23;8.32;;;22.70;68.00;;;;;;5051616;28;20278;-67
2021/07/04 11:25:56;;;;;;;9.18;8.32;;;22.70;67.80;;;;;;5055767;28;20179;-69
2021/07/04 11:28:31;;;;;;;9.07;8.35;;;22.80;67.60;;;;;;5055770;28;20171;-65
2021/07/04 11:31:01;;;;;;;9.20;8.30;;;22.80;67.50;;;;;;5054957;28;20537;-64
2021/07/04 11:33:34;;;;;;;9.77;8.75;;;22.80;67.50;;;;;;5054522;28;20683;-65
2021/07/04 11:36:10;;;;;;;8.15;7.45;;;22.80;67.40;;;;;;5055941;28;20282;-65
2021/07/04 11:38:39;;;;;;;8.90;8.18;;;22.80;67.50;;;;;;5054759;28;20207;-66
2021/07/04 11:41:05;;;;;;;8.80;8.10;;;22.80;67.40;;;;;;5055764;28;20186;-74
2021/07/04 11:43:33;;;;;;;8.80;8.00;;;22.90;67.40;;;;;;5053970;28;20190;-64
2021/07/04 11:46:00;;;;;;;8.32;7.53;;;23.00;67.10;;;;;;5055115;28;20175;-76
2021/07/04 11:48:52;;;;;;;8.82;8.05;;;23.00;66.80;;;;;;5055727;28;20190;-78
2021/07/04 11:51:32;;;;;;;9.20;8.23;;;23.10;66.60;;;;;;5054850;28;20257;-65
2021/07/04 11:54:12;;;;;;;8.88;8.15;;;23.10;66.60;;;;;;5055333;28;20199;-65
2021/07/04 11:56:38;;;;;;;8.77;8.00;;;23.10;66.70;;;;;;5055169;28;20191;-64
2021/07/04 11:59:15;;;;;;;9.07;8.18;;;23.10;66.70;;;;;;5054571;28;20244;-66
2021/07/04 12:01:46;;;;;;;9.88;8.50;;;23.10;66.70;;;;;;5055004;28;20171;-65
2021/07/04 12:04:11;;;;;;;9.13;8.32;;;23.00;66.70;;;;;;5055221;28;20182;-65
2021/07/04 12:06:55;;;;;;;8.55;7.82;;;23.00;66.80;;;;;;5053571;28;20286;-66
2021/07/04 12:09:38;;;;;;;10.07;9.18;;;23.00;66.80;;;;;;5055075;28;20693;-65
2021/07/04 12:12:24;;;;;;;10.10;9.20;;;23.00;66.80;;;;;;5053708;28;20178;-64
2021/07/04 12:14:54;;;;;;;9.35;8.45;;;23.10;66.60;;;;;;5054409;28;20197;-65
2021/07/04 12:17:30;;;;;;;9.50;8.60;;;23.20;66.40;;;;;;5054850;28;20630;-65
2021/07/04 12:20:09;;;;;;;9.70;8.80;;;23.10;66.40;;;;;;5054003;28;20234;-66
2021/07/04 12:22:48;;;;;;;9.07;8.27;;;23.10;66.40;;;;;;5054672;28;20179;-66
2021/07/04 12:25:15;;;;;;;10.23;9.32;;;23.20;66.40;;;;;;5054963;28;20179;-65
2021/07/04 12:27:45;;;;;;;9.65;8.65;;;23.20;66.20;;;;;;5053867;28;20178;-66
2021/07/04 12:30:24;;;;;;;9.63;8.73;;;23.30;66.10;;;;;;5056331;28;20179;-66
2021/07/04 12:32:52;;;;;;;9.68;8.77;;;23.20;66.20;;;;;;5056907;28;20594;-66
2021/07/04 12:35:50;;;;;;;10.30;9.40;;;23.20;66.20;;;;;;5052841;28;20175;-66
2021/07/04 12:38:21;;;;;;;10.25;9.25;;;23.20;66.30;;;;;;5054202;28;20245;-66
2021/07/04 12:40:54;;;;;;;9.63;8.82;;;23.20;66.40;;;;;;5053953;28;20542;-67
2021/07/04 12:43:22;;;;;;;9.77;8.88;;;23.30;66.30;;;;;;5054658;28;20234;-67
2021/07/04 12:45:51;;;;;;;10.32;9.32;;;23.30;66.20;;;;;;5054060;28;20175;-67
2021/07/04 12:48:18;;;;;;;9.75;8.85;;;23.30;66.10;;;;;;5053916;28;20179;-67
2021/07/04 12:50:55;;;;;;;9.07;8.27;;;23.30;66.00;;;;;;5054136;28;20256;-67